sensor_id;sensor_type;location;lat;lon;timestamp;P1;durP1;ratioP1;P2;durP2;ratioP2
33421;SDS011;19763;55.798;37.782;2023-05-29T00:00:16;5.25;;;3.47;;
33421;SDS011;19763;55.798;37.782;2023-05-29T00:02:43;6.03;;;2.95;;
33421;SDS011;19763;55.798;37.782;2023-05-29T00:05:10;4.57;;;3.05;;
33421;SDS011;19763;55.798;37.782;2023-05-29T00:07:37;5.50;;;3.25;;
33421;SDS011;19763;55.798;37.782;2023-05-29T00:10:03;6.53;;;3.20;;
33421;SDS011;19763;55.798;37.782;2023-05-29T00:12:29;6.57;;;3.00;;
33421;SDS011;19763;55.798;37.782;2023-05-29T00:14:55;5.45;;;3.15;;
33421;SDS011;19763;55.798;37.782;2023-05-29T00:17:20;6.13;;;3.50;;
33421;SDS011;19763;55.798;37.782;2023-05-29T00:19:46;6.05;;;3.00;;
33421;SDS011;19763;55.798;37.782;2023-05-29T00:22:12;9.77;;;3.45;;
33421;SDS011;19763;55.798;37.782;2023-05-29T00:24:37;10.55;;;3.13;;
33421;SDS011;19763;55.798;37.782;2023-05-29T00:27:03;8.57;;;3.33;;
33421;SDS011;19763;55.798;37.782;2023-05-29T00:29:29;4.25;;;2.92;;
33421;SDS011;19763;55.798;37.782;2023-05-29T00:31:56;6.97;;;3.40;;
33421;SDS011;19763;55.798;37.782;2023-05-29T00:34:22;4.38;;;2.95;;
33421;SDS011;19763;55.798;37.782;2023-05-29T00:36:51;6.53;;;3.20;;
33421;SDS011;19763;55.798;37.782;2023-05-29T00:39:17;8.10;;;3.28;;
33421;SDS011;19763;55.798;37.782;2023-05-29T00:41:43;5.28;;;3.00;;
33421;SDS011;19763;55.798;37.782;2023-05-29T00:44:08;10.77;;;3.38;;
33421;SDS011;19763;55.798;37.782;2023-05-29T00:46:34;5.68;;;2.85;;
33421;SDS011;19763;55.798;37.782;2023-05-29T00:49:00;5.75;;;3.15;;
33421;SDS011;19763;55.798;37.782;2023-05-29T00:51:26;6.60;;;2.70;;
33421;SDS011;19763;55.798;37.782;2023-05-29T00:53:53;6.32;;;3.10;;
33421;SDS011;19763;55.798;37.782;2023-05-29T00:56:20;5.10;;;3.15;;
33421;SDS011;19763;55.798;37.782;2023-05-29T00:58:46;9.25;;;3.10;;
33421;SDS011;19763;55.798;37.782;2023-05-29T01:01:14;4.97;;;2.88;;
33421;SDS011;19763;55.798;37.782;2023-05-29T01:03:40;4.00;;;2.88;;
33421;SDS011;19763;55.798;37.782;2023-05-29T01:06:07;5.25;;;3.17;;
33421;SDS011;19763;55.798;37.782;2023-05-29T01:08:32;4.18;;;2.92;;
33421;SDS011;19763;55.798;37.782;2023-05-29T01:11:08;9.63;;;3.67;;
33421;SDS011;19763;55.798;37.782;2023-05-29T01:13:54;4.07;;;2.90;;
33421;SDS011;19763;55.798;37.782;2023-05-29T01:16:26;5.40;;;3.10;;
33421;SDS011;19763;55.798;37.782;2023-05-29T01:22:13;8.48;;;3.60;;
33421;SDS011;19763;55.798;37.782;2023-05-29T01:25:22;4.35;;;2.80;;
33421;SDS011;19763;55.798;37.782;2023-05-29T01:27:53;6.10;;;3.22;;
33421;SDS011;19763;55.798;37.782;2023-05-29T01:30:20;4.18;;;3.13;;
33421;SDS011;19763;55.798;37.782;2023-05-29T01:32:49;5.68;;;3.03;;
33421;SDS011;19763;55.798;37.782;2023-05-29T01:35:16;4.15;;;2.67;;
33421;SDS011;19763;55.798;37.782;2023-05-29T01:37:41;6.63;;;3.20;;
33421;SDS011;19763;55.798;37.782;2023-05-29T01:40:07;6.10;;;3.28;;
33421;SDS011;19763;55.798;37.782;2023-05-29T01:42:33;8.00;;;2.67;;
33421;SDS011;19763;55.798;37.782;2023-05-29T01:45:00;4.78;;;2.92;;
33421;SDS011;19763;55.798;37.782;2023-05-29T01:47:29;5.68;;;2.75;;
33421;SDS011;19763;55.798;37.782;2023-05-29T01:49:55;4.47;;;3.13;;
33421;SDS011;19763;55.798;37.782;2023-05-29T01:52:21;7.13;;;3.90;;
33421;SDS011;19763;55.798;37.782;2023-05-29T01:54:47;4.55;;;3.03;;
33421;SDS011;19763;55.798;37.782;2023-05-29T01:57:12;5.53;;;2.88;;
33421;SDS011;19763;55.798;37.782;2023-05-29T01:59:38;6.20;;;3.03;;
33421;SDS011;19763;55.798;37.782;2023-05-29T02:02:06;6.25;;;3.53;;
33421;SDS011;19763;55.798;37.782;2023-05-29T02:04:34;6.65;;;2.88;;
33421;SDS011;19763;55.798;37.782;2023-05-29T02:07:00;4.32;;;3.10;;
33421;SDS011;19763;55.798;37.782;2023-05-29T02:09:26;5.88;;;3.15;;
33421;SDS011;19763;55.798;37.782;2023-05-29T02:11:52;7.90;;;3.03;;
33421;SDS011;19763;55.798;37.782;2023-05-29T02:14:17;4.90;;;2.92;;
33421;SDS011;19763;55.798;37.782;2023-05-29T02:16:43;5.95;;;2.92;;
33421;SDS011;19763;55.798;37.782;2023-05-29T02:19:09;4.28;;;2.95;;
33421;SDS011;19763;55.798;37.782;2023-05-29T02:21:55;7.97;;;2.97;;
33421;SDS011;19763;55.798;37.782;2023-05-29T02:24:21;3.80;;;2.63;;
33421;SDS011;19763;55.798;37.782;2023-05-29T02:26:47;5.93;;;3.10;;
33421;SDS011;19763;55.798;37.782;2023-05-29T02:29:15;6.68;;;3.40;;
33421;SDS011;19763;55.798;37.782;2023-05-29T02:31:41;4.18;;;3.03;;
33421;SDS011;19763;55.798;37.782;2023-05-29T02:34:06;6.15;;;3.00;;
33421;SDS011;19763;55.798;37.782;2023-05-29T02:36:32;5.28;;;3.00;;
33421;SDS011;19763;55.798;37.782;2023-05-29T02:38:57;6.28;;;3.15;;
33421;SDS011;19763;55.798;37.782;2023-05-29T02:41:23;7.45;;;3.22;;
33421;SDS011;19763;55.798;37.782;2023-05-29T02:43:48;5.90;;;2.95;;
33421;SDS011;19763;55.798;37.782;2023-05-29T02:46:14;6.22;;;3.25;;
33421;SDS011;19763;55.798;37.782;2023-05-29T02:48:39;6.68;;;3.10;;
33421;SDS011;19763;55.798;37.782;2023-05-29T02:51:05;4.85;;;2.70;;
33421;SDS011;19763;55.798;37.782;2023-05-29T02:53:31;5.20;;;3.13;;
33421;SDS011;19763;55.798;37.782;2023-05-29T02:55:56;5.75;;;3.10;;
33421;SDS011;19763;55.798;37.782;2023-05-29T02:58:22;6.75;;;3.20;;
33421;SDS011;19763;55.798;37.782;2023-05-29T03:00:48;5.20;;;3.22;;
33421;SDS011;19763;55.798;37.782;2023-05-29T03:03:13;4.40;;;2.80;;
33421;SDS011;19763;55.798;37.782;2023-05-29T03:05:39;5.18;;;3.17;;
33421;SDS011;19763;55.798;37.782;2023-05-29T03:08:04;5.05;;;2.92;;
33421;SDS011;19763;55.798;37.782;2023-05-29T03:10:30;5.03;;;2.72;;
33421;SDS011;19763;55.798;37.782;2023-05-29T03:12:56;8.15;;;3.00;;
33421;SDS011;19763;55.798;37.782;2023-05-29T03:15:21;7.22;;;3.15;;
33421;SDS011;19763;55.798;37.782;2023-05-29T03:17:47;4.50;;;2.75;;
33421;SDS011;19763;55.798;37.782;2023-05-29T03:20:12;8.40;;;3.05;;
33421;SDS011;19763;55.798;37.782;2023-05-29T03:22:38;5.95;;;3.03;;
33421;SDS011;19763;55.798;37.782;2023-05-29T03:25:04;5.15;;;2.67;;
33421;SDS011;19763;55.798;37.782;2023-05-29T03:27:30;9.10;;;3.42;;
33421;SDS011;19763;55.798;37.782;2023-05-29T03:29:56;6.70;;;3.08;;
33421;SDS011;19763;55.798;37.782;2023-05-29T03:32:23;5.80;;;2.80;;
33421;SDS011;19763;55.798;37.782;2023-05-29T03:34:48;5.03;;;2.90;;
33421;SDS011;19763;55.798;37.782;2023-05-29T03:37:14;4.97;;;2.42;;
33421;SDS011;19763;55.798;37.782;2023-05-29T03:39:40;4.28;;;3.03;;
33421;SDS011;19763;55.798;37.782;2023-05-29T03:42:05;5.68;;;2.65;;
33421;SDS011;19763;55.798;37.782;2023-05-29T03:44:31;7.70;;;2.85;;
33421;SDS011;19763;55.798;37.782;2023-05-29T03:46:57;6.05;;;2.78;;
33421;SDS011;19763;55.798;37.782;2023-05-29T03:49:22;4.60;;;2.63;;
33421;SDS011;19763;55.798;37.782;2023-05-29T03:51:48;2.90;;;2.33;;
33421;SDS011;19763;55.798;37.782;2023-05-29T03:54:15;6.63;;;2.50;;
33421;SDS011;19763;55.798;37.782;2023-05-29T03:56:40;3.90;;;2.35;;
33421;SDS011;19763;55.798;37.782;2023-05-29T03:59:06;6.45;;;2.88;;
33421;SDS011;19763;55.798;37.782;2023-05-29T04:01:31;5.55;;;2.70;;
33421;SDS011;19763;55.798;37.782;2023-05-29T04:03:57;6.05;;;2.50;;
33421;SDS011;19763;55.798;37.782;2023-05-29T04:06:23;5.35;;;2.85;;
33421;SDS011;19763;55.798;37.782;2023-05-29T04:08:48;4.38;;;2.30;;
33421;SDS011;19763;55.798;37.782;2023-05-29T04:11:15;6.60;;;2.60;;
33421;SDS011;19763;55.798;37.782;2023-05-29T04:13:40;8.13;;;3.00;;
33421;SDS011;19763;55.798;37.782;2023-05-29T04:16:06;8.57;;;2.80;;
33421;SDS011;19763;55.798;37.782;2023-05-29T04:18:32;5.70;;;3.08;;
33421;SDS011;19763;55.798;37.782;2023-05-29T04:20:58;4.18;;;2.47;;
33421;SDS011;19763;55.798;37.782;2023-05-29T04:23:24;5.88;;;3.10;;
33421;SDS011;19763;55.798;37.782;2023-05-29T04:25:50;8.52;;;2.78;;
33421;SDS011;19763;55.798;37.782;2023-05-29T04:28:16;9.75;;;2.78;;
33421;SDS011;19763;55.798;37.782;2023-05-29T04:30:42;6.60;;;2.67;;
33421;SDS011;19763;55.798;37.782;2023-05-29T04:33:08;5.30;;;2.95;;
33421;SDS011;19763;55.798;37.782;2023-05-29T04:35:37;8.75;;;2.95;;
33421;SDS011;19763;55.798;37.782;2023-05-29T04:38:03;4.32;;;2.53;;
33421;SDS011;19763;55.798;37.782;2023-05-29T04:40:30;6.72;;;2.88;;
33421;SDS011;19763;55.798;37.782;2023-05-29T04:42:56;3.97;;;2.47;;
33421;SDS011;19763;55.798;37.782;2023-05-29T04:45:25;6.88;;;2.67;;
33421;SDS011;19763;55.798;37.782;2023-05-29T04:47:51;4.85;;;2.88;;
33421;SDS011;19763;55.798;37.782;2023-05-29T04:50:17;8.25;;;2.80;;
33421;SDS011;19763;55.798;37.782;2023-05-29T04:52:43;4.53;;;2.60;;
33421;SDS011;19763;55.798;37.782;2023-05-29T04:55:09;4.70;;;2.67;;
33421;SDS011;19763;55.798;37.782;2023-05-29T04:57:38;3.28;;;2.47;;
33421;SDS011;19763;55.798;37.782;2023-05-29T05:00:03;4.57;;;2.50;;
33421;SDS011;19763;55.798;37.782;2023-05-29T05:02:34;6.47;;;2.88;;
33421;SDS011;19763;55.798;37.782;2023-05-29T05:05:00;8.95;;;2.58;;
33421;SDS011;19763;55.798;37.782;2023-05-29T05:07:25;2.65;;;2.05;;
33421;SDS011;19763;55.798;37.782;2023-05-29T05:09:51;2.90;;;1.90;;
33421;SDS011;19763;55.798;37.782;2023-05-29T05:12:16;5.72;;;2.63;;
33421;SDS011;19763;55.798;37.782;2023-05-29T05:14:42;4.65;;;2.42;;
33421;SDS011;19763;55.798;37.782;2023-05-29T05:17:08;3.90;;;2.35;;
33421;SDS011;19763;55.798;37.782;2023-05-29T05:19:33;5.30;;;2.13;;
33421;SDS011;19763;55.798;37.782;2023-05-29T05:21:59;3.63;;;1.95;;
33421;SDS011;19763;55.798;37.782;2023-05-29T05:24:24;6.00;;;2.13;;
33421;SDS011;19763;55.798;37.782;2023-05-29T05:26:50;4.50;;;2.58;;
33421;SDS011;19763;55.798;37.782;2023-05-29T05:29:16;5.13;;;1.95;;
33421;SDS011;19763;55.798;37.782;2023-05-29T05:31:41;3.38;;;1.83;;
33421;SDS011;19763;55.798;37.782;2023-05-29T05:34:07;3.95;;;1.83;;
33421;SDS011;19763;55.798;37.782;2023-05-29T05:36:32;3.03;;;1.83;;
33421;SDS011;19763;55.798;37.782;2023-05-29T05:38:58;5.07;;;1.63;;
33421;SDS011;19763;55.798;37.782;2023-05-29T05:41:24;4.38;;;2.13;;
33421;SDS011;19763;55.798;37.782;2023-05-29T05:43:50;8.50;;;2.20;;
33421;SDS011;19763;55.798;37.782;2023-05-29T05:46:15;5.20;;;1.90;;
33421;SDS011;19763;55.798;37.782;2023-05-29T05:48:42;5.15;;;2.40;;
33421;SDS011;19763;55.798;37.782;2023-05-29T05:51:08;6.78;;;2.08;;
33421;SDS011;19763;55.798;37.782;2023-05-29T05:53:35;2.88;;;2.10;;
33421;SDS011;19763;55.798;37.782;2023-05-29T05:56:01;4.22;;;1.80;;
33421;SDS011;19763;55.798;37.782;2023-05-29T05:58:26;2.97;;;1.63;;
33421;SDS011;19763;55.798;37.782;2023-05-29T06:00:52;2.88;;;1.55;;
33421;SDS011;19763;55.798;37.782;2023-05-29T06:03:18;5.65;;;1.70;;
33421;SDS011;19763;55.798;37.782;2023-05-29T06:05:43;3.78;;;1.95;;
33421;SDS011;19763;55.798;37.782;2023-05-29T06:08:09;4.75;;;1.88;;
33421;SDS011;19763;55.798;37.782;2023-05-29T06:10:35;5.30;;;1.83;;
33421;SDS011;19763;55.798;37.782;2023-05-29T06:13:01;4.72;;;1.80;;
33421;SDS011;19763;55.798;37.782;2023-05-29T06:15:26;2.25;;;1.40;;
33421;SDS011;19763;55.798;37.782;2023-05-29T06:17:52;2.50;;;1.20;;
33421;SDS011;19763;55.798;37.782;2023-05-29T06:20:20;5.03;;;1.90;;
33421;SDS011;19763;55.798;37.782;2023-05-29T06:22:46;4.03;;;1.50;;
33421;SDS011;19763;55.798;37.782;2023-05-29T06:25:15;5.05;;;1.50;;
33421;SDS011;19763;55.798;37.782;2023-05-29T06:27:43;2.83;;;1.50;;
33421;SDS011;19763;55.798;37.782;2023-05-29T06:30:09;1.60;;;1.40;;
33421;SDS011;19763;55.798;37.782;2023-05-29T06:32:36;3.60;;;1.55;;
33421;SDS011;19763;55.798;37.782;2023-05-29T06:35:02;4.38;;;1.63;;
33421;SDS011;19763;55.798;37.782;2023-05-29T06:37:28;2.92;;;1.60;;
33421;SDS011;19763;55.798;37.782;2023-05-29T06:39:53;5.13;;;1.63;;
33421;SDS011;19763;55.798;37.782;2023-05-29T06:42:19;1.95;;;1.60;;
33421;SDS011;19763;55.798;37.782;2023-05-29T06:44:44;2.22;;;1.67;;
33421;SDS011;19763;55.798;37.782;2023-05-29T06:47:10;2.85;;;1.30;;
33421;SDS011;19763;55.798;37.782;2023-05-29T06:49:36;1.98;;;1.40;;
33421;SDS011;19763;55.798;37.782;2023-05-29T06:52:01;3.75;;;1.38;;
33421;SDS011;19763;55.798;37.782;2023-05-29T06:54:27;1.90;;;1.35;;
33421;SDS011;19763;55.798;37.782;2023-05-29T06:56:52;4.28;;;1.20;;
33421;SDS011;19763;55.798;37.782;2023-05-29T06:59:19;1.60;;;1.20;;
33421;SDS011;19763;55.798;37.782;2023-05-29T07:01:45;4.05;;;1.50;;
33421;SDS011;19763;55.798;37.782;2023-05-29T07:04:11;1.92;;;1.33;;
33421;SDS011;19763;55.798;37.782;2023-05-29T07:06:37;3.05;;;1.30;;
33421;SDS011;19763;55.798;37.782;2023-05-29T07:09:03;3.42;;;1.33;;
33421;SDS011;19763;55.798;37.782;2023-05-29T07:11:29;4.72;;;1.60;;
33421;SDS011;19763;55.798;37.782;2023-05-29T07:13:55;2.72;;;1.30;;
33421;SDS011;19763;55.798;37.782;2023-05-29T07:16:20;4.47;;;1.75;;
33421;SDS011;19763;55.798;37.782;2023-05-29T07:18:46;5.18;;;1.33;;
33421;SDS011;19763;55.798;37.782;2023-05-29T07:21:12;6.47;;;1.67;;
33421;SDS011;19763;55.798;37.782;2023-05-29T07:23:37;5.15;;;1.60;;
33421;SDS011;19763;55.798;37.782;2023-05-29T07:26:04;4.03;;;1.90;;
33421;SDS011;19763;55.798;37.782;2023-05-29T07:28:30;2.58;;;1.50;;
33421;SDS011;19763;55.798;37.782;2023-05-29T07:30:55;2.95;;;1.45;;
33421;SDS011;19763;55.798;37.782;2023-05-29T07:33:21;3.67;;;1.40;;
33421;SDS011;19763;55.798;37.782;2023-05-29T07:35:47;2.60;;;1.35;;
33421;SDS011;19763;55.798;37.782;2023-05-29T07:38:13;1.45;;;1.33;;
33421;SDS011;19763;55.798;37.782;2023-05-29T07:40:39;5.32;;;1.65;;
33421;SDS011;19763;55.798;37.782;2023-05-29T07:43:05;2.42;;;1.67;;
33421;SDS011;19763;55.798;37.782;2023-05-29T07:45:30;3.08;;;1.48;;
33421;SDS011;19763;55.798;37.782;2023-05-29T07:47:56;2.35;;;1.33;;
33421;SDS011;19763;55.798;37.782;2023-05-29T07:50:21;2.00;;;1.40;;
33421;SDS011;19763;55.798;37.782;2023-05-29T07:52:47;5.13;;;1.67;;
33421;SDS011;19763;55.798;37.782;2023-05-29T07:55:13;3.80;;;1.60;;
33421;SDS011;19763;55.798;37.782;2023-05-29T07:57:38;3.30;;;1.33;;
33421;SDS011;19763;55.798;37.782;2023-05-29T08:00:04;4.03;;;1.42;;
33421;SDS011;19763;55.798;37.782;2023-05-29T08:02:31;3.13;;;1.50;;
33421;SDS011;19763;55.798;37.782;2023-05-29T08:04:56;3.53;;;1.52;;
33421;SDS011;19763;55.798;37.782;2023-05-29T08:07:22;2.33;;;1.40;;
33421;SDS011;19763;55.798;37.782;2023-05-29T08:09:47;2.85;;;1.60;;
33421;SDS011;19763;55.798;37.782;2023-05-29T08:12:13;3.22;;;1.60;;
33421;SDS011;19763;55.798;37.782;2023-05-29T08:14:38;9.00;;;1.65;;
33421;SDS011;19763;55.798;37.782;2023-05-29T08:17:04;3.13;;;1.50;;
33421;SDS011;19763;55.798;37.782;2023-05-29T08:19:30;2.40;;;1.73;;
33421;SDS011;19763;55.798;37.782;2023-05-29T08:21:55;1.88;;;1.48;;
33421;SDS011;19763;55.798;37.782;2023-05-29T08:24:21;4.32;;;1.92;;
33421;SDS011;19763;55.798;37.782;2023-05-29T08:26:46;2.13;;;1.65;;
33421;SDS011;19763;55.798;37.782;2023-05-29T08:29:12;4.57;;;2.00;;
33421;SDS011;19763;55.798;37.782;2023-05-29T08:31:38;2.70;;;1.70;;
33421;SDS011;19763;55.798;37.782;2023-05-29T08:34:03;3.65;;;2.05;;
33421;SDS011;19763;55.798;37.782;2023-05-29T08:36:29;1.88;;;1.50;;
33421;SDS011;19763;55.798;37.782;2023-05-29T08:38:54;5.05;;;1.60;;
33421;SDS011;19763;55.798;37.782;2023-05-29T08:41:41;5.75;;;2.20;;
33421;SDS011;19763;55.798;37.782;2023-05-29T08:44:15;2.72;;;1.80;;
33421;SDS011;19763;55.798;37.782;2023-05-29T08:46:47;6.32;;;1.60;;
33421;SDS011;19763;55.798;37.782;2023-05-29T08:49:20;4.80;;;1.83;;
33421;SDS011;19763;55.798;37.782;2023-05-29T08:51:53;5.43;;;1.90;;
33421;SDS011;19763;55.798;37.782;2023-05-29T08:54:27;2.15;;;1.60;;
33421;SDS011;19763;55.798;37.782;2023-05-29T08:56:57;3.88;;;1.50;;
33421;SDS011;19763;55.798;37.782;2023-05-29T08:59:23;2.35;;;1.90;;
33421;SDS011;19763;55.798;37.782;2023-05-29T09:01:50;3.05;;;1.38;;
33421;SDS011;19763;55.798;37.782;2023-05-29T09:04:15;3.30;;;1.83;;
33421;SDS011;19763;55.798;37.782;2023-05-29T09:06:42;2.75;;;1.40;;
33421;SDS011;19763;55.798;37.782;2023-05-29T09:09:07;2.50;;;1.75;;
33421;SDS011;19763;55.798;37.782;2023-05-29T09:11:34;4.78;;;1.60;;
33421;SDS011;19763;55.798;37.782;2023-05-29T09:14:00;4.95;;;1.30;;
33421;SDS011;19763;55.798;37.782;2023-05-29T09:16:27;6.43;;;2.33;;
33421;SDS011;19763;55.798;37.782;2023-05-29T09:18:56;4.03;;;1.60;;
33421;SDS011;19763;55.798;37.782;2023-05-29T09:21:30;7.55;;;1.80;;
33421;SDS011;19763;55.798;37.782;2023-05-29T09:24:04;4.63;;;1.95;;
33421;SDS011;19763;55.798;37.782;2023-05-29T09:26:33;3.45;;;1.70;;
33421;SDS011;19763;55.798;37.782;2023-05-29T09:28:59;2.70;;;1.52;;
33421;SDS011;19763;55.798;37.782;2023-05-29T09:31:26;2.25;;;1.65;;
33421;SDS011;19763;55.798;37.782;2023-05-29T09:33:51;2.00;;;1.55;;
33421;SDS011;19763;55.798;37.782;2023-05-29T09:36:23;3.83;;;1.50;;
33421;SDS011;19763;55.798;37.782;2023-05-29T09:38:50;2.85;;;1.40;;
33421;SDS011;19763;55.798;37.782;2023-05-29T09:41:22;3.42;;;1.40;;
33421;SDS011;19763;55.798;37.782;2023-05-29T09:43:49;3.35;;;1.85;;
33421;SDS011;19763;55.798;37.782;2023-05-29T09:46:15;3.08;;;1.70;;
33421;SDS011;19763;55.798;37.782;2023-05-29T09:48:43;4.65;;;1.50;;
33421;SDS011;19763;55.798;37.782;2023-05-29T09:51:21;2.78;;;1.70;;
33421;SDS011;19763;55.798;37.782;2023-05-29T09:53:48;2.75;;;1.50;;
33421;SDS011;19763;55.798;37.782;2023-05-29T09:56:15;2.47;;;1.95;;
33421;SDS011;19763;55.798;37.782;2023-05-29T09:58:43;4.22;;;1.70;;
33421;SDS011;19763;55.798;37.782;2023-05-29T10:01:15;5.88;;;1.75;;
33421;SDS011;19763;55.798;37.782;2023-05-29T10:03:41;2.97;;;1.48;;
33421;SDS011;19763;55.798;37.782;2023-05-29T10:06:10;2.53;;;1.52;;
33421;SDS011;19763;55.798;37.782;2023-05-29T10:08:43;3.72;;;1.83;;
33421;SDS011;19763;55.798;37.782;2023-05-29T10:11:16;2.10;;;1.70;;
33421;SDS011;19763;55.798;37.782;2023-05-29T10:13:48;3.28;;;2.00;;
33421;SDS011;19763;55.798;37.782;2023-05-29T10:16:16;5.20;;;1.77;;
33421;SDS011;19763;55.798;37.782;2023-05-29T10:18:49;5.50;;;1.60;;
33421;SDS011;19763;55.798;37.782;2023-05-29T10:21:23;2.45;;;1.92;;
33421;SDS011;19763;55.798;37.782;2023-05-29T10:23:51;6.90;;;1.70;;
33421;SDS011;19763;55.798;37.782;2023-05-29T10:26:20;5.22;;;2.10;;
33421;SDS011;19763;55.798;37.782;2023-05-29T10:34:40;2.90;;;1.73;;
33421;SDS011;19763;55.798;37.782;2023-05-29T10:37:29;6.38;;;1.70;;
33421;SDS011;19763;55.798;37.782;2023-05-29T10:40:05;1.92;;;1.70;;
33421;SDS011;19763;55.798;37.782;2023-05-29T10:45:10;3.20;;;1.90;;
33421;SDS011;19763;55.798;37.782;2023-05-29T10:47:39;4.32;;;2.13;;
33421;SDS011;19763;55.798;37.782;2023-05-29T10:50:04;4.15;;;2.25;;
33421;SDS011;19763;55.798;37.782;2023-05-29T10:52:33;3.50;;;1.63;;
33421;SDS011;19763;55.798;37.782;2023-05-29T10:55:00;4.45;;;2.00;;
33421;SDS011;19763;55.798;37.782;2023-05-29T10:57:29;6.85;;;1.73;;
33421;SDS011;19763;55.798;37.782;2023-05-29T11:00:05;3.65;;;1.95;;
33421;SDS011;19763;55.798;37.782;2023-05-29T11:02:38;5.63;;;2.80;;
33421;SDS011;19763;55.798;37.782;2023-05-29T11:05:23;3.55;;;1.58;;
33421;SDS011;19763;55.798;37.782;2023-05-29T11:07:53;2.95;;;1.73;;
33421;SDS011;19763;55.798;37.782;2023-05-29T11:10:41;6.75;;;2.17;;
33421;SDS011;19763;55.798;37.782;2023-05-29T11:13:08;7.15;;;3.00;;
33421;SDS011;19763;55.798;37.782;2023-05-29T11:15:35;4.60;;;2.38;;
33421;SDS011;19763;55.798;37.782;2023-05-29T11:18:06;10.40;;;6.13;;
33421;SDS011;19763;55.798;37.782;2023-05-29T11:20:36;8.40;;;3.45;;
33421;SDS011;19763;55.798;37.782;2023-05-29T11:23:07;3.20;;;1.88;;
33421;SDS011;19763;55.798;37.782;2023-05-29T11:25:36;8.10;;;6.53;;
33421;SDS011;19763;55.798;37.782;2023-05-29T11:28:03;3.50;;;1.50;;
33421;SDS011;19763;55.798;37.782;2023-05-29T11:30:46;8.55;;;5.70;;
33421;SDS011;19763;55.798;37.782;2023-05-29T11:33:16;6.80;;;2.55;;
33421;SDS011;19763;55.798;37.782;2023-05-29T11:35:55;6.07;;;1.92;;
33421;SDS011;19763;55.798;37.782;2023-05-29T11:38:23;7.10;;;3.35;;
33421;SDS011;19763;55.798;37.782;2023-05-29T11:40:50;1.85;;;1.65;;
33421;SDS011;19763;55.798;37.782;2023-05-29T11:43:15;2.65;;;1.77;;
33421;SDS011;19763;55.798;37.782;2023-05-29T11:45:41;6.43;;;2.03;;
33421;SDS011;19763;55.798;37.782;2023-05-29T11:48:07;3.97;;;2.17;;
33421;SDS011;19763;55.798;37.782;2023-05-29T11:50:32;4.35;;;1.58;;
33421;SDS011;19763;55.798;37.782;2023-05-29T11:52:59;4.20;;;1.98;;
33421;SDS011;19763;55.798;37.782;2023-05-29T11:55:25;5.90;;;1.70;;
33421;SDS011;19763;55.798;37.782;2023-05-29T11:58:02;1.95;;;1.60;;
33421;SDS011;19763;55.798;37.782;2023-05-29T12:00:35;3.55;;;1.60;;
33421;SDS011;19763;55.798;37.782;2023-05-29T12:03:04;3.58;;;1.70;;
33421;SDS011;19763;55.798;37.782;2023-05-29T12:05:52;1.67;;;1.55;;
33421;SDS011;19763;55.798;37.782;2023-05-29T12:08:23;2.97;;;1.52;;
33421;SDS011;19763;55.798;37.782;2023-05-29T12:10:52;4.80;;;2.10;;
33421;SDS011;19763;55.798;37.782;2023-05-29T12:13:18;6.07;;;1.70;;
33421;SDS011;19763;55.798;37.782;2023-05-29T12:15:45;7.32;;;2.30;;
33421;SDS011;19763;55.798;37.782;2023-05-29T12:18:12;6.15;;;1.95;;
33421;SDS011;19763;55.798;37.782;2023-05-29T12:20:38;3.50;;;1.90;;
33421;SDS011;19763;55.798;37.782;2023-05-29T12:23:04;6.30;;;1.65;;
33421;SDS011;19763;55.798;37.782;2023-05-29T12:25:30;6.35;;;1.90;;
33421;SDS011;19763;55.798;37.782;2023-05-29T12:27:56;5.53;;;2.00;;
33421;SDS011;19763;55.798;37.782;2023-05-29T12:30:23;3.80;;;1.98;;
33421;SDS011;19763;55.798;37.782;2023-05-29T12:32:49;6.75;;;2.10;;
33421;SDS011;19763;55.798;37.782;2023-05-29T12:35:22;3.50;;;1.77;;
33421;SDS011;19763;55.798;37.782;2023-05-29T12:37:52;4.30;;;2.10;;
33421;SDS011;19763;55.798;37.782;2023-05-29T12:40:25;3.08;;;1.92;;
33421;SDS011;19763;55.798;37.782;2023-05-29T12:42:55;5.95;;;2.00;;
33421;SDS011;19763;55.798;37.782;2023-05-29T12:45:24;5.75;;;1.90;;
33421;SDS011;19763;55.798;37.782;2023-05-29T12:47:57;5.53;;;2.15;;
33421;SDS011;19763;55.798;37.782;2023-05-29T12:53:15;7.15;;;1.73;;
33421;SDS011;19763;55.798;37.782;2023-05-29T12:55:41;3.92;;;1.80;;
33421;SDS011;19763;55.798;37.782;2023-05-29T12:58:11;4.15;;;1.65;;
33421;SDS011;19763;55.798;37.782;2023-05-29T13:00:38;3.10;;;1.77;;
33421;SDS011;19763;55.798;37.782;2023-05-29T13:03:06;5.75;;;2.00;;
33421;SDS011;19763;55.798;37.782;2023-05-29T13:05:33;3.97;;;1.90;;
33421;SDS011;19763;55.798;37.782;2023-05-29T13:07:59;2.85;;;1.60;;
33421;SDS011;19763;55.798;37.782;2023-05-29T13:10:25;4.13;;;1.88;;
33421;SDS011;19763;55.798;37.782;2023-05-29T13:12:52;3.10;;;1.85;;
33421;SDS011;19763;55.798;37.782;2023-05-29T13:15:20;5.85;;;2.03;;
33421;SDS011;19763;55.798;37.782;2023-05-29T13:17:47;3.65;;;1.90;;
33421;SDS011;19763;55.798;37.782;2023-05-29T13:20:13;3.20;;;1.92;;
33421;SDS011;19763;55.798;37.782;2023-05-29T13:22:40;3.40;;;1.83;;
33421;SDS011;19763;55.798;37.782;2023-05-29T13:25:08;1.83;;;1.60;;
33421;SDS011;19763;55.798;37.782;2023-05-29T13:27:35;3.22;;;2.03;;
33421;SDS011;19763;55.798;37.782;2023-05-29T13:30:02;3.75;;;1.98;;
33421;SDS011;19763;55.798;37.782;2023-05-29T13:32:29;3.38;;;1.90;;
33421;SDS011;19763;55.798;37.782;2023-05-29T13:34:55;3.47;;;1.90;;
33421;SDS011;19763;55.798;37.782;2023-05-29T13:37:21;5.68;;;2.08;;
33421;SDS011;19763;55.798;37.782;2023-05-29T13:39:46;5.30;;;2.13;;
33421;SDS011;19763;55.798;37.782;2023-05-29T13:42:12;4.18;;;1.77;;
33421;SDS011;19763;55.798;37.782;2023-05-29T13:44:38;2.92;;;1.63;;
33421;SDS011;19763;55.798;37.782;2023-05-29T13:47:05;3.35;;;1.73;;
33421;SDS011;19763;55.798;37.782;2023-05-29T13:49:31;3.47;;;1.90;;
33421;SDS011;19763;55.798;37.782;2023-05-29T13:51:57;2.60;;;1.60;;
33421;SDS011;19763;55.798;37.782;2023-05-29T13:54:22;2.40;;;1.63;;
33421;SDS011;19763;55.798;37.782;2023-05-29T13:56:48;2.83;;;1.83;;
33421;SDS011;19763;55.798;37.782;2023-05-29T13:59:14;6.60;;;2.20;;
33421;SDS011;19763;55.798;37.782;2023-05-29T14:01:40;4.90;;;1.70;;
33421;SDS011;19763;55.798;37.782;2023-05-29T14:04:05;2.88;;;1.52;;
33421;SDS011;19763;55.798;37.782;2023-05-29T14:06:32;3.50;;;1.73;;
33421;SDS011;19763;55.798;37.782;2023-05-29T14:08:58;2.50;;;1.60;;
33421;SDS011;19763;55.798;37.782;2023-05-29T14:11:23;3.83;;;1.77;;
33421;SDS011;19763;55.798;37.782;2023-05-29T14:13:50;3.83;;;1.98;;
33421;SDS011;19763;55.798;37.782;2023-05-29T14:16:15;4.85;;;1.88;;
33421;SDS011;19763;55.798;37.782;2023-05-29T14:18:41;4.95;;;2.00;;
33421;SDS011;19763;55.798;37.782;2023-05-29T14:21:07;5.65;;;2.22;;
33421;SDS011;19763;55.798;37.782;2023-05-29T14:23:33;3.42;;;1.83;;
33421;SDS011;19763;55.798;37.782;2023-05-29T14:26:00;8.07;;;2.53;;
33421;SDS011;19763;55.798;37.782;2023-05-29T14:28:26;2.63;;;1.85;;
33421;SDS011;19763;55.798;37.782;2023-05-29T14:30:52;3.53;;;1.90;;
33421;SDS011;19763;55.798;37.782;2023-05-29T14:33:17;2.15;;;1.90;;
33421;SDS011;19763;55.798;37.782;2023-05-29T14:35:43;6.13;;;1.67;;
33421;SDS011;19763;55.798;37.782;2023-05-29T14:38:08;4.53;;;1.90;;
33421;SDS011;19763;55.798;37.782;2023-05-29T14:40:34;3.22;;;1.60;;
33421;SDS011;19763;55.798;37.782;2023-05-29T14:43:01;3.05;;;1.83;;
33421;SDS011;19763;55.798;37.782;2023-05-29T14:45:26;3.50;;;1.90;;
33421;SDS011;19763;55.798;37.782;2023-05-29T14:47:52;6.05;;;1.80;;